Time;durP1;ratioP1;P1;durP2;ratioP2;P2;SDS_P1;SDS_P2;PMS_P1;PMS_P2;Temp;Humidity;BMP_temperature;BMP_pressure;BME280_temperature;BME280_humidity;BME280_pressure;Samples;Min_cycle;Max_cycle;Signal;HPM_P1;HPM_P2
2023/06/03 00:02:05;;;;;;;7.95;3.97;;;;;;;26.34;40.00;99555.66;4257822;33;33555;-62
2023/06/03 00:04:33;;;;;;;6.95;4.10;;;;;;;26.34;39.94;99559.22;4258914;33;34047;-62
2023/06/03 00:07:01;;;;;;;5.75;3.75;;;;;;;26.34;39.88;99561.16;4258880;33;33707;-62
2023/06/03 00:09:28;;;;;;;9.68;4.00;;;;;;;26.35;40.00;99568.28;4258843;33;34154;-64
2023/06/03 00:11:56;;;;;;;6.75;4.32;;;;;;;26.33;40.09;99571.25;4246688;33;33677;-62
2023/06/03 00:14:23;;;;;;;6.15;4.03;;;;;;;26.33;40.03;99578.62;4246567;33;34581;-62
2023/06/03 00:16:51;;;;;;;8.68;4.70;;;;;;;26.33;39.94;99576.72;4246518;33;35228;-62
2023/06/03 00:19:19;;;;;;;7.68;4.50;;;;;;;26.32;40.05;99579.72;4246621;33;33803;-62
2023/06/03 00:21:49;;;;;;;7.15;4.20;;;;;;;26.32;40.06;99585.19;4246750;33;33869;-63
2023/06/03 00:24:17;;;;;;;7.55;4.25;;;;;;;26.32;39.98;99585.19;4246607;33;33635;-62
2023/06/03 00:26:44;;;;;;;7.97;4.12;;;;;;;26.31;40.01;99587.09;4246673;33;35002;-62
2023/06/03 00:29:14;;;;;;;7.70;4.32;;;;;;;26.31;40.01;99583.53;4246333;33;34995;-62
2023/06/03 00:31:43;;;;;;;7.20;4.10;;;;;;;26.31;40.04;99583.53;4246721;33;33682;-62
2023/06/03 00:34:13;;;;;;;8.68;4.68;;;;;;;26.31;40.08;99586.28;4246814;33;33737;-66
2023/06/03 00:36:41;;;;;;;7.10;4.62;;;;;;;26.30;40.21;99588.19;4245248;33;33654;-62
2023/06/03 00:39:09;;;;;;;8.05;4.40;;;;;;;26.30;40.34;99588.19;4256218;33;34859;-62
2023/06/03 00:41:38;;;;;;;6.97;4.43;;;;;;;26.30;40.31;99599.13;4273763;33;33537;-64
2023/06/03 00:44:05;;;;;;;7.18;4.60;;;;;;;26.31;40.22;99597.22;4258473;33;33771;-64
2023/06/03 00:46:34;;;;;;;7.43;4.28;;;;;;;26.31;40.19;99600.78;4260113;33;34702;-64
2023/06/03 00:49:02;;;;;;;7.57;4.15;;;;;;;26.30;40.13;99601.00;4258947;33;33628;-65
2023/06/03 00:51:30;;;;;;;5.70;4.10;;;;;;;26.31;40.11;99594.50;4259880;33;33657;-64
2023/06/03 00:53:58;;;;;;;6.82;4.20;;;;;;;26.31;40.09;99609.00;4260029;33;33819;-64
2023/06/03 00:56:27;;;;;;;7.12;4.30;;;;;;;26.31;40.07;99594.50;4255654;33;34943;-65
2023/06/03 00:58:55;;;;;;;7.18;4.20;;;;;;;26.31;40.04;99594.50;4233420;33;33775;-65
2023/06/03 01:01:24;;;;;;;8.77;4.57;;;;;;;26.30;39.99;99598.28;4245839;33;34229;-64
2023/06/03 01:03:52;;;;;;;8.77;4.55;;;;;;;26.30;40.00;99601.00;4245743;33;34967;-64
2023/06/03 01:06:27;;;;;;;6.82;4.05;;;;;;;26.31;40.02;99594.50;4245482;33;33922;-64
2023/06/03 01:09:06;;;;;;;7.95;4.50;;;;;;;26.31;40.07;99602.69;4233158;33;34071;-64
2023/06/03 01:12:06;;;;;;;9.88;4.82;;;;;;;26.31;40.07;99605.44;4251958;33;33828;-63
2023/06/03 01:14:47;;;;;;;8.27;4.40;;;;;;;26.30;40.02;99598.28;4242611;33;33163;-64
2023/06/03 01:17:15;;;;;;;5.90;4.05;;;;;;;26.31;40.02;99597.22;4247193;33;34805;-64
2023/06/03 01:19:48;;;;;;;6.60;4.35;;;;;;;26.29;40.01;99599.38;4247150;33;34516;-64
2023/06/03 01:22:20;;;;;;;6.93;4.22;;;;;;;26.29;40.01;99596.63;4269732;33;33372;-64
2023/06/03 01:24:50;;;;;;;6.43;4.10;;;;;;;26.28;40.01;99598.53;4258552;33;33909;-63
2023/06/03 01:27:18;;;;;;;6.07;4.07;;;;;;;26.29;39.96;99604.84;4258627;33;33918;-64
2023/06/03 01:29:46;;;;;;;6.68;4.30;;;;;;;26.29;39.93;99610.31;4259730;33;34294;-64
2023/06/03 01:32:15;;;;;;;6.18;3.90;;;;;;;26.28;39.93;99601.28;4259752;33;33374;-65
2023/06/03 01:34:42;;;;;;;7.37;4.55;;;;;;;26.28;39.92;99600.44;4244361;33;33924;-65
2023/06/03 01:37:10;;;;;;;6.53;3.95;;;;;;;26.27;39.88;99599.63;4233212;33;33678;-65
2023/06/03 01:39:41;;;;;;;7.20;4.20;;;;;;;26.27;39.89;99599.63;4245933;33;34335;-64
2023/06/03 01:42:10;;;;;;;7.22;4.05;;;;;;;26.28;39.89;99603.19;4245365;33;33670;-63
2023/06/03 01:44:38;;;;;;;6.82;4.62;;;;;;;26.27;39.86;99616.03;4245833;33;34387;-64
2023/06/03 01:47:06;;;;;;;9.52;4.85;;;;;;;26.28;39.86;99614.13;4245372;33;34492;-61
2023/06/03 01:49:33;;;;;;;7.07;3.75;;;;;;;26.27;39.84;99601.53;4232760;33;34067;-63
2023/06/03 01:52:01;;;;;;;7.03;4.00;;;;;;;26.27;39.82;99607.00;4245666;33;33627;-63
2023/06/03 01:54:29;;;;;;;7.43;4.22;;;;;;;26.26;39.80;99614.38;4245841;33;33669;-64
2023/06/03 01:56:57;;;;;;;7.60;4.28;;;;;;;26.26;39.83;99617.12;4244347;33;34682;-64
2023/06/03 01:59:25;;;;;;;8.10;4.22;;;;;;;26.27;39.81;99626.16;4232960;33;33851;-64
2023/06/03 02:01:53;;;;;;;6.55;4.47;;;;;;;26.27;39.81;99620.69;4245749;33;33133;-63
2023/06/03 02:04:22;;;;;;;7.33;4.47;;;;;;;26.25;39.81;99626.38;4245770;33;33648;-63
2023/06/03 02:06:55;;;;;;;6.40;3.75;;;;;;;26.27;39.73;99626.16;4245572;33;33684;-63
2023/06/03 02:09:27;;;;;;;8.35;4.60;;;;;;;26.26;39.71;99633.53;4244255;33;34264;-62
2023/06/03 02:11:59;;;;;;;6.95;4.40;;;;;;;26.26;39.68;99635.44;4258347;33;33756;-62
2023/06/03 02:14:29;;;;;;;6.80;4.10;;;;;;;26.24;39.68;99635.66;4258525;33;34392;-63
2023/06/03 02:16:59;;;;;;;6.82;3.97;;;;;;;26.24;39.70;99643.87;4258450;33;33481;-63
2023/06/03 02:19:28;;;;;;;6.80;4.35;;;;;;;26.25;39.69;99633.75;4259739;33;34855;-63
2023/06/03 02:21:58;;;;;;;7.37;4.03;;;;;;;26.24;39.67;99641.13;4259619;33;33710;-62
2023/06/03 02:24:29;;;;;;;6.90;4.35;;;;;;;26.24;39.68;99646.59;4259737;33;34652;-64
2023/06/03 02:27:00;;;;;;;6.85;4.18;;;;;;;26.24;39.64;99641.13;4259402;33;33709;-63
2023/06/03 02:29:29;;;;;;;5.12;3.50;;;;;;;26.24;39.63;99643.06;4259265;33;33828;-64
2023/06/03 02:31:58;;;;;;;6.78;4.05;;;;;;;26.23;39.60;99646.88;4259458;33;34483;-64
2023/06/03 02:34:26;;;;;;;7.50;4.12;;;;;;;26.22;39.60;99654.25;4246122;33;34658;-65
2023/06/03 02:36:53;;;;;;;7.50;4.22;;;;;;;26.23;39.54;99646.88;4245311;33;33789;-64
2023/06/03 02:39:22;;;;;;;7.15;3.80;;;;;;;26.22;39.57;99651.50;4258023;33;33943;-63
2023/06/03 02:41:50;;;;;;;7.85;4.15;;;;;;;26.21;39.52;99652.59;4259482;33;33696;-63
2023/06/03 02:44:17;;;;;;;7.65;3.97;;;;;;;26.22;39.50;99656.97;4259651;33;33912;-64
2023/06/03 02:46:45;;;;;;;6.55;3.80;;;;;;;26.22;39.49;99658.91;4259543;33;33933;-64
2023/06/03 02:49:13;;;;;;;6.35;4.18;;;;;;;26.22;39.44;99658.91;4259192;33;35069;-65
2023/06/03 02:51:41;;;;;;;6.82;4.18;;;;;;;26.20;39.46;99665.41;4259438;33;33533;-64
2023/06/03 02:54:08;;;;;;;6.37;4.30;;;;;;;26.20;39.49;99662.69;4259293;33;33369;-64
2023/06/03 02:56:36;;;;;;;6.72;4.00;;;;;;;26.20;39.48;99668.16;4257993;33;33811;-64
2023/06/03 02:59:05;;;;;;;8.00;4.53;;;;;;;26.19;39.46;99669.22;4258191;33;34762;-64
2023/06/03 03:01:33;;;;;;;7.12;4.28;;;;;;;26.19;39.45;99671.97;4259104;33;33522;-63
2023/06/03 03:04:01;;;;;;;6.50;4.28;;;;;;;26.20;39.44;99670.06;4259404;33;33589;-64
2023/06/03 03:06:29;;;;;;;7.45;3.95;;;;;;;26.20;39.43;99670.88;4259303;33;33795;-64
2023/06/03 03:08:57;;;;;;;7.93;4.28;;;;;;;26.19;39.43;99677.44;4257850;33;34738;-63
2023/06/03 03:11:25;;;;;;;7.30;4.03;;;;;;;26.19;39.43;99682.91;4259041;33;33230;-65
2023/06/03 03:13:52;;;;;;;6.28;3.60;;;;;;;26.19;39.41;99684.81;4258671;33;33874;-65
2023/06/03 03:16:23;;;;;;;5.90;3.92;;;;;;;26.19;39.35;99688.37;4259469;33;34678;-68
2023/06/03 03:18:51;;;;;;;7.62;4.28;;;;;;;26.18;39.32;99689.47;4259493;33;33758;-64
2023/06/03 03:21:18;;;;;;;6.18;3.92;;;;;;;26.19;39.32;99699.31;4259483;33;33603;-64
2023/06/03 03:23:46;;;;;;;6.22;4.05;;;;;;;26.18;39.34;99694.94;4259260;33;33490;-64
2023/06/03 03:26:15;;;;;;;7.97;3.78;;;;;;;26.18;39.32;99705.88;4259676;33;33795;-64
2023/06/03 03:28:43;;;;;;;7.75;3.30;;;;;;;26.18;39.22;99705.88;4259590;33;33860;-64
2023/06/03 03:31:14;;;;;;;7.22;3.95;;;;;;;26.17;39.19;99706.94;4259257;33;34354;-64
2023/06/03 03:33:42;;;;;;;9.23;3.95;;;;;;;26.17;39.23;99714.34;4259286;33;34825;-63
2023/06/03 03:36:22;;;;;;;7.37;4.22;;;;;;;26.17;39.21;99717.06;4258117;33;34130;-64
2023/06/03 03:39:03;;;;;;;6.60;3.87;;;;;;;26.16;39.17;99710.78;4258437;33;34645;-64
2023/06/03 03:41:31;;;;;;;6.72;3.72;;;;;;;26.17;39.13;99717.88;4258968;33;33926;-64
2023/06/03 03:43:59;;;;;;;6.82;4.07;;;;;;;26.15;39.10;99725.50;4257500;33;33830;-64
2023/06/03 03:46:26;;;;;;;6.90;3.65;;;;;;;26.15;39.06;99732.88;4259895;33;34408;-63
2023/06/03 03:48:54;;;;;;;5.30;3.37;;;;;;;26.14;39.04;99736.69;4260984;33;34197;-64
2023/06/03 03:51:22;;;;;;;5.65;3.40;;;;;;;26.13;39.12;99735.88;4260709;33;34309;-64
2023/06/03 03:53:50;;;;;;;6.97;3.90;;;;;;;26.13;39.14;99740.50;4261062;33;34065;-63
2023/06/03 03:56:20;;;;;;;8.05;4.32;;;;;;;26.13;39.16;99740.50;4261123;33;34429;-64
2023/06/03 03:58:49;;;;;;;6.18;4.57;;;;;;;26.14;39.14;99753.09;4261190;33;34555;-64
2023/06/03 04:01:18;;;;;;;7.00;3.72;;;;;;;26.13;39.10;99744.06;4260009;33;32605;-64
2023/06/03 04:03:48;;;;;;;6.45;3.97;;;;;;;26.12;39.14;99745.16;4259872;33;33490;-63
2023/06/03 04:06:35;;;;;;;5.85;3.75;;;;;;;26.12;39.13;99747.88;4260923;33;34871;-63
2023/06/03 04:09:04;;;;;;;7.57;3.85;;;;;;;26.15;39.04;99754.75;4260725;33;33972;-64
2023/06/03 04:11:41;;;;;;;7.27;3.90;;;;;;;26.12;39.02;99756.09;4250146;33;33565;-64
2023/06/03 04:14:10;;;;;;;6.57;4.30;;;;;;;26.12;39.03;99753.34;4245650;33;34344;-62
2023/06/03 04:16:57;;;;;;;7.28;3.92;;;;;;;26.10;39.04;99750.00;4246529;33;34094;-64
2023/06/03 04:19:36;;;;;;;6.65;4.10;;;;;;;26.13;39.06;99759.66;4245728;33;33807;-64
2023/06/03 04:22:06;;;;;;;7.03;3.70;;;;;;;26.08;39.08;99760.38;4246868;33;34327;-64
2023/06/03 04:24:34;;;;;;;6.50;4.20;;;;;;;26.10;39.04;99760.97;4246617;33;34357;-63
2023/06/03 04:27:02;;;;;;;9.88;4.30;;;;;;;26.07;39.03;99758.72;4246610;33;33822;-64
2023/06/03 04:29:30;;;;;;;6.70;3.60;;;;;;;26.09;39.01;99763.94;4246802;33;34001;-64
2023/06/03 04:31:59;;;;;;;6.10;4.18;;;;;;;26.08;39.00;99767.75;4246909;33;34373;-65
2023/06/03 04:34:28;;;;;;;8.00;4.30;;;;;;;26.08;39.03;99765.84;4246571;33;33597;-64
2023/06/03 04:36:56;;;;;;;7.47;4.20;;;;;;;26.07;39.03;99758.72;4246803;33;34781;-64
2023/06/03 04:39:25;;;;;;;7.40;4.43;;;;;;;26.08;38.97;99765.84;4246457;33;34362;-64
2023/06/03 04:41:53;;;;;;;6.57;4.12;;;;;;;26.08;39.02;99762.28;4246569;33;34277;-64
2023/06/03 04:44:21;;;;;;;6.72;4.05;;;;;;;26.07;39.04;99766.09;4246553;33;34774;-64
2023/06/03 04:46:50;;;;;;;7.97;4.47;;;;;;;26.08;39.02;99765.03;4246551;33;33779;-63
2023/06/03 04:49:18;;;;;;;7.62;3.97;;;;;;;26.08;39.02;99770.50;4246327;33;33924;-64
2023/06/03 04:51:46;;;;;;;6.32;3.55;;;;;;;26.09;38.98;99770.25;4246476;33;34554;-64
2023/06/03 04:54:14;;;;;;;7.70;3.70;;;;;;;26.09;39.00;99775.72;4246219;33;34702;-64
2023/06/03 04:56:43;;;;;;;7.72;3.70;;;;;;;26.07;39.02;99775.13;4246152;33;34122;-64
2023/06/03 04:59:11;;;;;;;6.85;3.85;;;;;;;26.08;39.01;99774.06;4246638;33;34783;-63
2023/06/03 05:01:40;;;;;;;8.65;3.87;;;;;;;26.09;39.03;99777.63;4259914;33;33570;-62
2023/06/03 05:04:08;;;;;;;7.40;3.97;;;;;;;26.09;39.01;99783.09;4260878;33;34492;-61
2023/06/03 05:06:37;;;;;;;9.48;4.37;;;;;;;26.08;38.98;99781.44;4260707;33;34992;-62
2023/06/03 05:09:05;;;;;;;8.75;3.72;;;;;;;26.07;38.98;99783.34;4260435;33;34069;-61
2023/06/03 05:11:33;;;;;;;7.07;3.55;;;;;;;26.07;39.00;99783.34;4260468;33;34100;-61
2023/06/03 05:14:01;;;;;;;8.60;4.00;;;;;;;26.08;38.99;99790.47;4260418;33;33852;-62
2023/06/03 05:16:28;;;;;;;7.95;3.85;;;;;;;26.08;38.98;99786.91;4260388;33;34796;-61
2023/06/03 05:18:56;;;;;;;5.57;3.62;;;;;;;26.07;38.96;99786.06;4260411;33;34222;-61
2023/06/03 05:21:23;;;;;;;9.00;3.78;;;;;;;26.08;38.97;99782.25;4260502;33;33531;-61
2023/06/03 05:23:51;;;;;;;7.45;3.75;;;;;;;26.08;38.97;99784.16;4260518;33;34005;-61
2023/06/03 05:26:19;;;;;;;7.57;4.03;;;;;;;26.08;38.95;99785.00;4260424;33;33787;-61
2023/06/03 05:28:48;;;;;;;6.65;3.92;;;;;;;26.07;38.94;99788.81;4260479;33;34865;-61
2023/06/03 05:31:16;;;;;;;6.18;3.40;;;;;;;26.07;38.95;99788.81;4260496;33;34130;-61
2023/06/03 05:33:44;;;;;;;6.53;3.60;;;;;;;26.08;38.94;99795.94;4260309;33;34086;-61
2023/06/03 05:36:12;;;;;;;7.32;3.80;;;;;;;26.08;38.92;99795.09;4260570;33;33920;-61
2023/06/03 05:38:39;;;;;;;7.87;3.90;;;;;;;26.08;38.91;99797.84;4260226;33;34842;-61
2023/06/03 05:41:08;;;;;;;10.48;4.00;;;;;;;26.08;38.92;99803.31;4260580;33;33092;-62
2023/06/03 05:43:36;;;;;;;6.82;3.90;;;;;;;26.08;38.91;99795.09;4260275;33;33835;-62
2023/06/03 05:46:04;;;;;;;6.32;3.58;;;;;;;26.08;38.93;99798.66;4260370;33;34024;-64
2023/06/03 05:48:31;;;;;;;7.22;3.87;;;;;;;26.08;38.90;99804.13;4260286;33;33806;-62
2023/06/03 05:51:04;;;;;;;8.85;3.80;;;;;;;26.08;38.90;99803.31;4260467;33;34407;-62
2023/06/03 05:53:32;;;;;;;7.60;4.43;;;;;;;26.07;38.89;99804.38;4260399;33;33546;-61
2023/06/03 05:56:00;;;;;;;7.22;4.30;;;;;;;26.07;38.89;99805.22;4260438;33;33240;-61
2023/06/03 05:58:28;;;;;;;8.60;4.37;;;;;;;26.07;38.88;99807.94;4260282;33;34042;-62
2023/06/03 06:00:55;;;;;;;6.68;3.80;;;;;;;26.07;38.88;99818.06;4260408;33;33400;-61
2023/06/03 06:03:23;;;;;;;6.65;4.03;;;;;;;26.07;38.86;99810.69;4259999;33;33966;-61
2023/06/03 06:05:52;;;;;;;7.50;4.18;;;;;;;26.07;38.85;99816.16;4260017;33;34609;-62
2023/06/03 06:08:19;;;;;;;6.40;3.70;;;;;;;26.07;38.85;99807.12;4259780;33;34494;-61
2023/06/03 06:10:47;;;;;;;8.02;4.00;;;;;;;26.07;38.86;99815.31;4259937;33;33833;-62
2023/06/03 06:13:15;;;;;;;9.88;4.30;;;;;;;26.07;38.87;99807.94;4259849;33;34558;-62
2023/06/03 06:15:59;;;;;;;8.55;4.25;;;;;;;26.07;38.85;99809.84;4259062;33;34167;-62
2023/06/03 06:18:27;;;;;;;6.47;3.83;;;;;;;26.09;38.82;99815.91;4235732;33;33797;-62
2023/06/03 06:20:55;;;;;;;5.62;3.37;;;;;;;26.06;38.85;99817.19;4235627;33;33537;-62
2023/06/03 06:23:23;;;;;;;7.70;4.22;;;;;;;26.06;38.87;99819.09;4260327;33;33872;-64
2023/06/03 06:25:52;;;;;;;7.30;3.97;;;;;;;26.05;38.85;99818.28;4259860;33;33589;-64
2023/06/03 06:28:21;;;;;;;7.25;4.40;;;;;;;26.05;38.70;99820.19;4247589;33;34325;-64
2023/06/03 06:30:55;;;;;;;8.68;4.60;;;;;;;26.05;38.59;99825.66;4247383;33;33350;-62
2023/06/03 06:33:23;;;;;;;6.80;3.60;;;;;;;26.06;38.52;99827.31;4260042;33;33859;-62
2023/06/03 06:35:51;;;;;;;9.15;4.12;;;;;;;26.05;38.49;99829.22;4260091;33;34727;-64
2023/06/03 06:38:18;;;;;;;7.70;4.40;;;;;;;26.06;38.46;99836.34;4259935;33;34203;-64
2023/06/03 06:40:46;;;;;;;7.90;4.35;;;;;;;26.05;38.46;99834.69;4247014;33;33743;-64
2023/06/03 06:43:15;;;;;;;5.62;3.42;;;;;;;26.05;38.56;99834.69;4235679;33;33861;-64
2023/06/03 06:45:43;;;;;;;;;;;;;;;26.04;38.56;99838.50;4247784;33;33685;-62
2023/06/03 06:48:12;;;;;;;6.00;3.83;;;;;;;26.16;38.36;99835.72;4258597;33;34125;-61
2023/06/03 06:50:53;;;;;;;6.60;4.18;;;;;;;26.08;38.49;99834.22;4235585;33;33339;-64
2023/06/03 06:53:23;;;;;;;7.10;4.18;;;;;;;26.07;38.49;99837.19;4259665;33;33417;-62
2023/06/03 06:56:01;;;;;;;7.95;4.37;;;;;;;26.05;38.50;99842.06;4235414;33;34595;-61
2023/06/03 06:58:36;;;;;;;7.93;4.28;;;;;;;26.06;38.48;99843.72;4259881;33;34167;-61
2023/06/03 07:01:07;;;;;;;8.07;3.72;;;;;;;26.06;38.54;99843.72;4258515;33;34399;-61
2023/06/03 07:03:36;;;;;;;8.18;4.50;;;;;;;26.04;38.55;99843.97;4247216;33;34869;-62
2023/06/03 07:06:04;;;;;;;7.18;4.07;;;;;;;26.04;38.57;99840.41;4247019;33;34854;-62
2023/06/03 07:08:33;;;;;;;7.97;4.40;;;;;;;26.04;38.59;99838.50;4256884;33;33713;-62
2023/06/03 07:11:03;;;;;;;5.82;3.67;;;;;;;26.06;38.53;99844.53;4258395;33;33484;-64
2023/06/03 07:13:32;;;;;;;7.85;4.50;;;;;;;26.06;38.55;99852.75;4259356;33;34099;-64
2023/06/03 07:16:01;;;;;;;7.70;4.43;;;;;;;26.08;38.49;99850.63;4252614;33;33502;-61
2023/06/03 07:18:30;;;;;;;;;;;;;;;26.08;38.51;99853.34;4252682;33;34755;-63
2023/06/03 07:20:58;;;;;;;7.65;4.60;;;;;;;26.17;38.45;99854.63;4262374;33;33501;-63
2023/06/03 07:23:27;;;;;;;7.43;4.25;;;;;;;26.11;38.62;99852.03;4257120;33;33752;-63
2023/06/03 07:25:55;;;;;;;9.18;3.97;;;;;;;26.11;38.76;99854.75;4250937;33;34782;-64
2023/06/03 07:28:34;;;;;;;14.25;4.85;;;;;;;26.10;38.79;99861.31;4245973;33;34046;-65
2023/06/03 07:31:05;;;;;;;8.63;3.90;;;;;;;26.10;38.70;99853.94;4246904;33;33741;-64
2023/06/03 07:33:40;;;;;;;6.50;4.00;;;;;;;26.08;38.61;99861.56;4247157;33;33776;-64
2023/06/03 07:36:08;;;;;;;10.30;4.68;;;;;;;26.09;38.51;99865.13;4245656;33;33621;-64
2023/06/03 07:38:39;;;;;;;5.72;3.67;;;;;;;26.08;38.42;99864.28;4245523;33;33882;-67
2023/06/03 07:41:08;;;;;;;7.60;4.47;;;;;;;26.07;38.40;99867.28;4247154;33;33437;-64
2023/06/03 07:43:38;;;;;;;10.63;4.03;;;;;;;26.07;38.31;99870.84;4247142;33;33862;-64
2023/06/03 07:46:06;;;;;;;7.78;3.55;;;;;;;26.07;38.31;99865.38;4245559;33;34182;-63
2023/06/03 07:48:38;;;;;;;10.43;3.83;;;;;;;26.08;38.28;99868.94;4247466;33;34593;-64
2023/06/03 07:51:07;;;;;;;8.57;3.75;;;;;;;26.07;38.32;99879.03;4233777;33;33426;-63
2023/06/03 07:53:39;;;;;;;9.27;3.87;;;;;;;26.07;38.32;99868.09;4264842;33;34890;-68
2023/06/03 07:56:09;;;;;;;9.70;4.57;;;;;;;26.08;38.36;99874.41;4267256;33;33838;-68
2023/06/03 07:58:37;;;;;;;7.40;4.45;;;;;;;26.08;38.29;99877.97;4240352;33;34033;-68
2023/06/03 08:01:04;;;;;;;7.95;4.43;;;;;;;26.10;38.21;99875.81;4250275;33;33719;-66
2023/06/03 08:03:33;;;;;;;9.27;4.35;;;;;;;26.09;38.30;99882.34;4246938;33;33722;-67
2023/06/03 08:06:00;;;;;;;8.45;4.65;;;;;;;26.09;38.34;99887.81;4246792;33;34762;-64
2023/06/03 08:08:31;;;;;;;7.32;3.85;;;;;;;26.09;38.35;99885.09;4259180;33;34819;-66
2023/06/03 08:11:00;;;;;;;10.50;4.60;;;;;;;26.09;38.38;99884.25;4253456;33;33555;-67
2023/06/03 08:13:27;;;;;;;9.43;4.17;;;;;;;26.08;38.37;99882.59;4260254;33;33901;-68
2023/06/03 08:15:55;;;;;;;8.10;4.15;;;;;;;26.10;38.38;99875.81;4260057;33;34033;-66
2023/06/03 08:18:41;;;;;;;10.40;4.82;;;;;;;26.10;38.39;99883.19;4260119;33;33883;-66
2023/06/03 08:21:09;;;;;;;9.00;4.45;;;;;;;26.12;38.37;99887.34;4259874;33;34409;-66
2023/06/03 08:23:37;;;;;;;6.95;4.50;;;;;;;26.11;38.39;99884.84;4260160;33;34033;-67
2023/06/03 08:26:04;;;;;;;8.93;4.30;;;;;;;26.11;38.41;99888.44;4259790;33;34106;-66
2023/06/03 08:28:32;;;;;;;10.27;4.45;;;;;;;26.13;38.43;99885.44;4260095;33;33723;-67
2023/06/03 08:31:00;;;;;;;8.45;4.10;;;;;;;26.12;38.42;99890.09;4260502;33;33770;-67
2023/06/03 08:33:27;;;;;;;10.50;4.72;;;;;;;26.11;38.42;99882.97;4259770;33;34341;-67
2023/06/03 08:35:56;;;;;;;7.65;4.18;;;;;;;26.13;38.47;99885.44;4260254;33;34777;-65
2023/06/03 08:38:24;;;;;;;8.27;4.10;;;;;;;26.13;38.47;99894.47;4259194;33;33888;-67
2023/06/03 08:40:51;;;;;;;7.87;4.12;;;;;;;26.14;38.47;99895.31;4258389;33;33254;-67
2023/06/03 08:43:21;;;;;;;9.32;4.30;;;;;;;26.14;38.46;99898.88;4258999;33;34351;-68
2023/06/03 08:45:55;;;;;;;9.20;4.28;;;;;;;26.15;38.40;99895.03;4260357;33;34055;-67
2023/06/03 08:48:24;;;;;;;8.10;4.47;;;;;;;26.19;38.33;99900.88;4254073;33;33721;-64
2023/06/03 08:50:51;;;;;;;8.35;4.72;;;;;;;26.16;38.38;99902.19;4269446;33;33162;-65
2023/06/03 08:53:19;;;;;;;9.05;4.00;;;;;;;26.15;38.36;99894.22;4268081;33;33382;-68
2023/06/03 08:55:47;;;;;;;8.60;4.68;;;;;;;26.14;38.38;99901.59;4244627;33;34865;-66
2023/06/03 08:58:26;;;;;;;10.25;4.30;;;;;;;26.14;38.43;99907.06;4245692;33;33981;-68
2023/06/03 09:00:59;;;;;;;9.27;4.50;;;;;;;26.15;38.42;99905.16;4257027;33;34627;-64
2023/06/03 09:03:27;;;;;;;12.48;4.75;;;;;;;26.13;38.43;99907.31;4246170;33;34592;-65
2023/06/03 09:05:54;;;;;;;8.10;4.22;;;;;;;26.13;38.38;99899.12;4259137;33;34972;-65
2023/06/03 09:08:22;;;;;;;10.82;4.47;;;;;;;26.13;38.38;99905.41;4259235;33;34143;-67
2023/06/03 09:10:50;;;;;;;7.93;3.80;;;;;;;26.11;38.39;99910.31;4247929;33;33730;-65
2023/06/03 09:13:18;;;;;;;11.23;4.20;;;;;;;26.11;38.38;99903.97;4259213;33;33835;-65
2023/06/03 09:15:46;;;;;;;9.27;4.18;;;;;;;26.11;38.37;99907.56;4248920;33;33512;-67
2023/06/03 09:18:14;;;;;;;7.47;3.95;;;;;;;26.12;38.34;99902.94;4272233;33;34022;-63
2023/06/03 09:20:42;;;;;;;9.93;4.75;;;;;;;26.11;38.31;99910.31;4266551;33;33484;-62
2023/06/03 09:23:11;;;;;;;8.95;4.15;;;;;;;26.11;38.37;99898.50;4259093;33;33828;-63
2023/06/03 09:25:39;;;;;;;7.03;4.23;;;;;;;26.11;38.46;99902.09;4234827;33;33861;-62
2023/06/03 09:28:06;;;;;;;10.23;4.35;;;;;;;26.13;38.46;99905.41;4243387;33;34067;-65
2023/06/03 09:30:35;;;;;;;9.27;4.68;;;;;;;26.13;38.52;99910.88;4245035;33;33421;-67
2023/06/03 09:33:03;;;;;;;10.57;5.20;;;;;;;26.13;38.58;99907.31;4246320;33;33198;-64
2023/06/03 09:35:31;;;;;;;8.70;4.60;;;;;;;26.14;38.57;99904.34;4245212;33;34776;-67
2023/06/03 09:38:04;;;;;;;7.80;3.90;;;;;;;26.14;38.57;99909.81;4245614;33;33855;-66
2023/06/03 09:40:32;;;;;;;9.27;4.47;;;;;;;26.14;38.59;99907.06;4255866;33;33678;-68
2023/06/03 09:43:00;;;;;;;10.52;4.75;;;;;;;26.14;38.53;99907.06;4245798;33;33974;-67
2023/06/03 09:45:29;;;;;;;8.55;5.03;;;;;;;26.15;38.48;99905.16;4245225;33;33878;-67
2023/06/03 09:47:58;;;;;;;;;;;;;;;26.14;38.43;99904.34;4257154;33;34644;-67
2023/06/03 09:50:31;;;;;;;11.23;4.62;;;;;;;26.24;38.23;99906.44;4259339;33;34178;-68
2023/06/03 09:53:00;;;;;;;13.90;5.50;;;;;;;26.17;38.32;99903.84;4258957;33;33994;-67
2023/06/03 09:55:32;;;;;;;12.15;4.93;;;;;;;26.13;38.35;99905.41;4246875;33;34021;-68
2023/06/03 09:58:10;;;;;;;10.20;4.97;;;;;;;26.14;38.30;99896.13;4257289;33;35161;-67
2023/06/03 10:00:48;;;;;;;8.48;4.93;;;;;;;26.15;38.27;99905.16;4259783;33;33646;-65
2023/06/03 10:03:18;;;;;;;9.93;5.25;;;;;;;26.17;38.22;99897.56;4245626;33;33962;-65
2023/06/03 10:05:46;;;;;;;9.93;5.05;;;;;;;26.15;38.25;99902.41;4254138;33;34582;-66
2023/06/03 10:08:13;;;;;;;10.35;4.68;;;;;;;26.16;38.20;99901.34;4259674;33;34745;-63
2023/06/03 10:10:55;;;;;;;11.27;4.72;;;;;;;26.16;38.28;99898.59;4258886;33;33515;-66
2023/06/03 10:13:23;;;;;;;10.55;4.68;;;;;;;26.18;38.24;99897.31;4258222;33;34773;-66
2023/06/03 10:15:54;;;;;;;13.50;5.07;;;;;;;26.16;38.30;99899.47;4259015;33;34114;-65
2023/06/03 10:18:38;;;;;;;7.35;4.65;;;;;;;26.16;38.33;99896.72;4259147;33;34236;-67
2023/06/03 10:21:12;;;;;;;10.90;4.93;;;;;;;26.19;38.20;99892.66;4255395;33;33103;-66
2023/06/03 10:23:41;;;;;;;7.12;4.62;;;;;;;26.19;38.17;99896.22;4266178;33;33621;-67
2023/06/03 10:26:09;;;;;;;8.15;4.50;;;;;;;26.19;38.19;99898.12;4257940;33;33678;-63
2023/06/03 10:28:37;;;;;;;10.07;4.82;;;;;;;26.20;38.16;99894.31;4233737;33;34582;-67
2023/06/03 10:31:05;;;;;;;7.65;4.97;;;;;;;26.18;38.16;99894.56;4259728;33;33640;-67
2023/06/03 10:33:36;;;;;;;8.10;4.73;;;;;;;26.18;38.13;99897.31;4259448;33;34712;-66
2023/06/03 10:36:04;;;;;;;10.00;4.47;;;;;;;26.19;38.11;99904.44;4259650;33;33240;-65
2023/06/03 10:38:32;;;;;;;8.90;4.47;;;;;;;26.19;38.10;99901.69;4259789;33;34170;-64
2023/06/03 10:41:01;;;;;;;10.50;4.78;;;;;;;26.19;38.09;99903.59;4259406;33;33683;-65
2023/06/03 10:43:30;;;;;;;7.70;4.37;;;;;;;26.18;38.03;99891.84;4259355;33;33838;-67
2023/06/03 10:45:57;;;;;;;9.73;4.55;;;;;;;26.18;38.04;99891.00;4258379;33;34825;-67
2023/06/03 10:48:25;;;;;;;7.10;4.30;;;;;;;26.18;38.02;99891.84;4258490;33;33887;-67
2023/06/03 10:51:07;;;;;;;7.70;4.28;;;;;;;26.17;38.02;99887.44;4258668;33;33197;-67
2023/06/03 10:53:40;;;;;;;10.75;4.62;;;;;;;26.19;38.00;99890.75;4259718;33;33925;-66
2023/06/03 10:56:16;;;;;;;8.00;4.18;;;;;;;26.17;38.01;99892.09;4256770;33;33723;-68
2023/06/03 10:58:44;;;;;;;8.45;4.53;;;;;;;26.18;38.00;99888.28;4245206;33;34890;-68
2023/06/03 11:01:12;;;;;;;6.97;4.43;;;;;;;26.17;38.03;99883.88;4259279;33;34443;-63
2023/06/03 11:03:51;;;;;;;8.75;4.75;;;;;;;26.17;38.12;99887.44;4259122;33;34097;-66
2023/06/03 11:06:21;;;;;;;;;;;;;;;26.19;38.15;99889.94;4258870;33;34021;-63
2023/06/03 11:09:09;;;;;;;10.43;4.82;;;;;;;26.26;37.93;99893.38;4259133;33;34451;-65
2023/06/03 11:11:40;;;;;;;11.55;4.20;;;;;;;26.20;37.95;99888.84;4258634;33;33653;-64
2023/06/03 11:14:25;;;;;;;7.22;4.28;;;;;;;26.17;37.97;99895.66;4258960;33;34758;-64
2023/06/03 11:16:56;;;;;;;6.78;4.37;;;;;;;26.17;38.08;99887.44;4257180;33;34854;-67
2023/06/03 11:19:30;;;;;;;8.85;4.72;;;;;;;26.17;38.14;99892.09;4258882;33;34163;-65
2023/06/03 11:21:59;;;;;;;8.57;4.62;;;;;;;26.15;37.29;99889.56;4248729;33;33649;-66
2023/06/03 11:24:38;;;;;;;8.23;4.55;;;;;;;26.13;37.51;99889.00;4245265;33;33854;-64
2023/06/03 11:27:09;;;;;;;;;;;;;;;26.15;37.68;99886.00;4253765;33;34105;-64
2023/06/03 11:29:45;;;;;;;7.22;4.15;;;;;;;26.23;37.50;99879.34;4258123;33;34548;-66
2023/06/03 11:32:14;;;;;;;8.00;4.35;;;;;;;26.15;37.37;99881.38;4258175;33;34518;-67
2023/06/03 11:34:43;;;;;;;7.10;4.32;;;;;;;26.12;36.89;99884.63;4262105;33;33806;-62
2023/06/03 11:37:11;;;;;;;8.07;3.90;;;;;;;26.11;36.98;99891.16;4263136;33;34041;-66
2023/06/03 11:39:58;;;;;;;9.68;4.30;;;;;;;26.12;37.19;99890.09;4244918;33;34801;-64
2023/06/03 11:42:26;;;;;;;8.52;4.47;;;;;;;26.15;36.75;99884.09;4255886;33;34390;-62
2023/06/03 11:44:54;;;;;;;7.40;4.22;;;;;;;26.12;36.58;99881.06;4258544;33;33650;-62
2023/06/03 11:47:21;;;;;;;7.55;4.78;;;;;;;26.11;36.50;99879.37;4257066;33;34266;-65